Time,TemperatureF,DewpointF,PressureIn,WindDirection,WindDirectionDegrees,WindSpeedMPH,WindSpeedGustMPH,Humidity,HourlyPrecipIn,Conditions,Clouds,dailyrainin,SoftwareType,DateUTC
2013-03-03 00:02:00,32.0,-99.9,29.71,North,7,9.0,14.0,-999,-99.99,,,-99.99,,2013-03-03 05:02:00,
2013-03-03 00:12:00,-999.0,-99.9,-100.00,North,2,13.0,15.0,-999,-99.99,,,-99.99,,2013-03-03 05:12:00,
2013-03-03 00:22:00,-999.0,-99.9,-100.00,North,4,13.0,16.0,-999,-99.99,,,-99.99,,2013-03-03 05:22:00,
2013-03-03 00:32:00,-999.0,-99.9,-100.00,North,1,11.0,14.0,-999,-99.99,,,-99.99,,2013-03-03 05:32:00,
2013-03-03 00:42:00,-999.0,-99.9,-100.00,North,4,12.0,15.0,-999,-99.99,,,-99.99,,2013-03-03 05:42:00,
2013-03-03 00:52:00,-999.0,-99.9,-100.00,NNW,345,13.0,17.0,-999,-99.99,,,-99.99,,2013-03-03 05:52:00,
2013-03-03 01:02:00,31.0,-99.9,29.71,North,350,12.0,17.0,-999,-99.99,,,-99.99,,2013-03-03 06:02:00,
2013-03-03 01:11:00,-999.0,-99.9,-100.00,North,352,14.0,17.0,-999,-99.99,,,-99.99,,2013-03-03 06:11:00,
2013-03-03 01:22:00,-999.0,-99.9,-100.00,North,359,11.0,16.0,-999,-99.99,,,-99.99,,2013-03-03 06:22:00,
2013-03-03 01:32:00,31.0,-99.9,29.72,NNW,346,13.0,17.0,-999,-99.99,,,-99.99,,2013-03-03 06:32:00,
2013-03-03 01:42:00,-999.0,-99.9,-100.00,North,6,13.0,16.0,-999,-99.99,,,-99.99,,2013-03-03 06:42:00,
2013-03-03 01:52:00,-999.0,-99.9,-100.00,North,353,12.0,16.0,-999,-99.99,,,-99.99,,2013-03-03 06:52:00,
2013-03-03 02:01:00,-999.0,-99.9,-100.00,North,6,12.0,16.0,-999,-99.99,,,-99.99,,2013-03-03 07:01:00,
2013-03-03 02:11:00,-999.0,-99.9,-100.00,NNE,12,12.0,16.0,-999,-99.99,,,-99.99,,2013-03-03 07:11:00,
2013-03-03 02:22:00,-999.0,-99.9,-100.00,NNW,348,11.0,17.0,-999,-99.99,,,-99.99,,2013-03-03 07:22:00,
2013-03-03 02:32:00,31.0,-99.9,29.71,North,3,13.0,16.0,-999,-99.99,,,-99.99,,2013-03-03 07:32:00,
2013-03-03 02:42:00,-999.0,-99.9,-100.00,North,3,13.0,16.0,-999,-99.99,,,-99.99,,2013-03-03 07:42:00,
2013-03-03 02:52:00,-999.0,-99.9,-100.00,North,10,12.0,14.0,-999,-99.99,,,-99.99,,2013-03-03 07:52:00,
2013-03-03 03:01:00,31.0,-99.9,29.70,North,358,11.0,14.0,-999,-99.99,,,-99.99,,2013-03-03 08:01:00,
2013-03-03 03:11:00,-999.0,-99.9,-100.00,NNW,343,11.0,15.0,-999,-99.99,,,-99.99,,2013-03-03 08:11:00,
2013-03-03 03:22:00,-999.0,-99.9,-100.00,North,354,12.0,16.0,-999,-99.99,,,-99.99,,2013-03-03 08:22:00,
2013-03-03 03:32:00,31.0,-99.9,29.70,North,356,12.0,16.0,-999,-99.99,,,-99.99,,2013-03-03 08:32:00,
2013-03-03 03:42:00,-999.0,-99.9,-100.00,North,355,11.0,15.0,-999,-99.99,,,-99.99,,2013-03-03 08:42:00,
2013-03-03 03:54:00,-999.0,-99.9,-100.00,North,6,11.0,14.0,-999,-99.99,,,-99.99,,2013-03-03 08:54:00,
2013-03-03 04:02:00,30.0,-99.9,29.70,NW,326,14.0,17.0,-999,-99.99,,,-99.99,,2013-03-03 09:02:00,
2013-03-03 04:12:00,-999.0,-99.9,-100.00,NNW,345,11.0,16.0,-999,-99.99,,,-99.99,,2013-03-03 09:12:00,
2013-03-03 04:22:00,-999.0,-99.9,-100.00,North,358,15.0,17.0,-999,-99.99,,,-99.99,,2013-03-03 09:22:00,
2013-03-03 04:32:00,30.0,-99.9,29.70,North,360,14.0,17.0,-999,-99.99,,,-99.99,,2013-03-03 09:32:00,
2013-03-03 04:42:00,-999.0,-99.9,-100.00,North,5,11.0,15.0,-999,-99.99,,,-99.99,,2013-03-03 09:42:00,
2013-03-03 04:52:00,-999.0,-99.9,-100.00,North,351,11.0,15.0,-999,-99.99,,,-99.99,,2013-03-03 09:52:00,
2013-03-03 05:01:00,30.0,-99.9,29.70,NNW,338,9.0,14.0,-999,-99.99,,,-99.99,,2013-03-03 10:01:00,
2013-03-03 05:12:00,-999.0,-99.9,-100.00,North,356,10.0,13.0,-999,-99.99,,,-99.99,,2013-03-03 10:12:00,
2013-03-03 05:22:00,-999.0,-99.9,-100.00,NNW,342,13.0,15.0,-999,-99.99,,,-99.99,,2013-03-03 10:22:00,
2013-03-03 05:32:00,30.0,-99.9,29.70,NNW,348,14.0,17.0,-999,-99.99,,,-99.99,,2013-03-03 10:32:00,
2013-03-03 05:42:00,-999.0,-99.9,-100.00,NNW,343,14.0,17.0,-999,-99.99,,,-99.99,,2013-03-03 10:42:00,
2013-03-03 05:52:00,-999.0,-99.9,-100.00,NNW,342,13.0,17.0,-999,-99.99,,,-99.99,,2013-03-03 10:52:00,
2013-03-03 06:02:00,30.0,-99.9,29.71,North,359,12.0,16.0,-999,-99.99,,,-99.99,,2013-03-03 11:02:00,
2013-03-03 06:11:00,-999.0,-99.9,-100.00,NNW,337,12.0,16.0,-999,-99.99,,,-99.99,,2013-03-03 11:11:00,
2013-03-03 06:22:00,-999.0,-99.9,-100.00,NNW,348,13.0,15.0,-999,-99.99,,,-99.99,,2013-03-03 11:22:00,
2013-03-03 06:32:00,30.0,-99.9,29.71,North,359,11.0,17.0,-999,-99.99,,,-99.99,,2013-03-03 11:32:00,
2013-03-03 06:42:00,-999.0,-99.9,-100.00,North,355,10.0,15.0,-999,-99.99,,,-99.99,,2013-03-03 11:42:00,
2013-03-03 06:53:00,-999.0,-99.9,-100.00,North,355,11.0,14.0,-999,-99.99,,,-99.99,,2013-03-03 11:53:00,
2013-03-03 07:02:00,-999.0,-99.9,-100.00,NNW,347,15.0,19.0,-999,-99.99,,,-99.99,,2013-03-03 12:02:00,
2013-03-03 07:11:00,-999.0,-99.9,-100.00,North,355,14.0,18.0,-999,-99.99,,,-99.99,,2013-03-03 12:11:00,
2013-03-03 07:22:00,-999.0,-99.9,-100.00,North,7,14.0,19.0,-999,-99.99,,,-99.99,,2013-03-03 12:22:00,
2013-03-03 07:32:00,30.0,-99.9,29.72,North,3,14.0,19.0,-999,-99.99,,,-99.99,,2013-03-03 12:32:00,
2013-03-03 07:43:00,-999.0,-99.9,-100.00,NNW,338,12.0,17.0,-999,-99.99,,,-99.99,,2013-03-03 12:43:00,
2013-03-03 07:53:00,-999.0,-99.9,-100.00,North,358,13.0,17.0,-999,-99.99,,,-99.99,,2013-03-03 12:53:00,
2013-03-03 08:02:00,29.0,-99.9,29.72,North,353,13.0,17.0,-999,-99.99,,,-99.99,,2013-03-03 13:02:00,
2013-03-03 08:11:00,-999.0,-99.9,-100.00,North,353,13.0,17.0,-999,-99.99,,,-99.99,,2013-03-03 13:11:00,
2013-03-03 08:22:00,-999.0,-99.9,-100.00,North,352,12.0,17.0,-999,-99.99,,,-99.99,,2013-03-03 13:22:00,
2013-03-03 08:32:00,-999.0,-99.9,-100.00,North,359,11.0,15.0,-999,-99.99,,,-99.99,,2013-03-03 13:32:00,
2013-03-03 08:42:00,-999.0,-99.9,-100.00,North,360,10.0,16.0,-999,-99.99,,,-99.99,,2013-03-03 13:42:00,
2013-03-03 08:52:00,-999.0,-99.9,-100.00,North,351,11.0,15.0,-999,-99.99,,,-99.99,,2013-03-03 13:52:00,
2013-03-03 09:02:00,30.0,-99.9,29.72,North,351,10.0,16.0,-999,-99.99,,,-99.99,,2013-03-03 14:02:00,
2013-03-03 09:11:00,-999.0,-99.9,-100.00,North,1,12.0,16.0,-999,-99.99,,,-99.99,,2013-03-03 14:11:00,
2013-03-03 09:22:00,-999.0,-99.9,-100.00,North,353,11.0,15.0,-999,-99.99,,,-99.99,,2013-03-03 14:22:00,
2013-03-03 09:32:00,30.0,-99.9,29.72,North,357,12.0,16.0,-999,-99.99,,,-99.99,,2013-03-03 14:32:00,
2013-03-03 09:42:00,-999.0,-99.9,-100.00,NNW,331,13.0,15.0,-999,-99.99,,,-99.99,,2013-03-03 14:42:00,
2013-03-03 09:52:00,-999.0,-99.9,-100.00,NNW,346,8.0,13.0,-999,-99.99,,,-99.99,,2013-03-03 14:52:00,
2013-03-03 10:02:00,30.0,-99.9,29.71,NW,325,13.0,15.0,-999,-99.99,,,-99.99,,2013-03-03 15:02:00,
2013-03-03 10:11:00,-999.0,-99.9,-100.00,NNW,341,10.0,13.0,-999,-99.99,,,-99.99,,2013-03-03 15:11:00,
2013-03-03 10:22:00,-999.0,-99.9,-100.00,NNW,334,9.0,14.0,-999,-99.99,,,-99.99,,2013-03-03 15:22:00,
2013-03-03 10:33:00,-999.0,-99.9,-100.00,NW,324,10.0,14.0,-999,-99.99,,,-99.99,,2013-03-03 15:33:00,
2013-03-03 10:42:00,-999.0,-99.9,-100.00,NNW,338,10.0,16.0,-999,-99.99,,,-99.99,,2013-03-03 15:42:00,
2013-03-03 10:52:00,-999.0,-99.9,-100.00,NW,324,13.0,15.0,-999,-99.99,,,-99.99,,2013-03-03 15:52:00,
2013-03-03 11:02:00,31.0,-99.9,29.70,NNW,330,11.0,16.0,-999,-99.99,,,-99.99,,2013-03-03 16:02:00,
2013-03-03 11:12:00,-999.0,-99.9,-100.00,North,354,10.0,13.0,-999,-99.99,,,-99.99,,2013-03-03 16:12:00,
2013-03-03 11:22:00,-999.0,-99.9,-100.00,NNW,344,8.0,14.0,-999,-99.99,,,-99.99,,2013-03-03 16:22:00,
2013-03-03 11:32:00,31.0,-99.9,29.70,NW,320,10.0,14.0,-999,-99.99,,,-99.99,,2013-03-03 16:32:00,
2013-03-03 11:42:00,-999.0,-99.9,-100.00,NNW,328,9.0,12.0,-999,-99.99,,,-99.99,,2013-03-03 16:42:00,
2013-03-03 11:52:00,-999.0,-99.9,-100.00,NW,321,11.0,13.0,-999,-99.99,,,-99.99,,2013-03-03 16:52:00,
2013-03-03 12:01:00,32.0,-99.9,29.70,NW,322,13.0,18.0,-999,-99.99,,,-99.99,,2013-03-03 17:01:00,
2013-03-03 12:12:00,-999.0,-99.9,-100.00,NW,325,12.0,15.0,-999,-99.99,,,-99.99,,2013-03-03 17:12:00,
2013-03-03 12:22:00,32.0,-99.9,-100.00,NW,318,11.0,14.0,-999,-99.99,,,-99.99,,2013-03-03 17:22:00,
2013-03-03 12:32:00,33.0,-99.9,29.69,NNW,345,12.0,14.0,-999,-99.99,,,-99.99,,2013-03-03 17:32:00,
2013-03-03 12:42:00,33.0,-99.9,-100.00,NW,320,11.0,13.0,-999,-99.99,,,-99.99,,2013-03-03 17:42:00,
2013-03-03 12:52:00,33.0,-99.9,-100.00,NNW,338,9.0,13.0,-999,-99.99,,,-99.99,,2013-03-03 17:52:00,
2013-03-03 13:02:00,34.0,-99.9,29.67,NNW,333,11.0,15.0,-999,-99.99,,,-99.99,,2013-03-03 18:02:00,
2013-03-03 13:11:00,34.0,-99.9,-100.00,NNW,342,9.0,13.0,-999,-99.99,,,-99.99,,2013-03-03 18:11:00,
2013-03-03 13:22:00,35.0,-99.9,-100.00,NNW,336,9.0,14.0,-999,-99.99,,,-99.99,,2013-03-03 18:22:00,
2013-03-03 13:32:00,35.0,-99.9,-100.00,North,352,11.0,15.0,-999,-99.99,,,-99.99,,2013-03-03 18:32:00,
2013-03-03 13:42:00,35.0,-99.9,-100.00,NNW,340,7.0,13.0,-999,-99.99,,,-99.99,,2013-03-03 18:42:00,
2013-03-03 13:53:00,36.0,-99.9,-100.00,NNW,333,10.0,15.0,-999,-99.99,,,-99.99,,2013-03-03 18:53:00,
2013-03-03 14:02:00,36.0,-99.9,29.65,NNW,338,9.0,15.0,-999,-99.99,,,-99.99,,2013-03-03 19:02:00,
2013-03-03 14:11:00,37.0,-99.9,-100.00,North,6,15.0,20.0,-999,-99.99,,,-99.99,,2013-03-03 19:11:00,
2013-03-03 14:22:00,36.0,-99.9,-100.00,North,358,9.0,16.0,-999,-99.99,,,-99.99,,2013-03-03 19:22:00,
2013-03-03 14:32:00,37.0,-99.9,29.65,North,4,6.0,10.0,-999,-99.99,,,-99.99,,2013-03-03 19:32:00,
2013-03-03 14:43:00,37.0,-99.9,-100.00,North,349,9.0,12.0,-999,-99.99,,,-99.99,,2013-03-03 19:43:00,
2013-03-03 14:52:00,38.0,-99.9,-100.00,North,357,9.0,12.0,-999,-99.99,,,-99.99,,2013-03-03 19:52:00,
2013-03-03 15:02:00,38.0,-99.9,-100.00,North,-999,11.0,16.0,-999,-99.99,,,-99.99,,2013-03-03 20:02:00,
2013-03-03 15:12:00,38.0,-99.9,-100.00,NNW,339,10.0,14.0,-999,-99.99,,,-99.99,,2013-03-03 20:12:00,
2013-03-03 15:22:00,38.0,-99.9,-100.00,North,355,9.0,15.0,-999,-99.99,,,-99.99,,2013-03-03 20:22:00,
2013-03-03 15:32:00,39.0,-99.9,29.63,NNW,333,8.0,12.0,-999,-99.99,,,-99.99,,2013-03-03 20:32:00,
2013-03-03 15:43:00,38.0,-99.9,-100.00,NNW,334,13.0,16.0,-999,-99.99,,,-99.99,,2013-03-03 20:43:00,
2013-03-03 15:53:00,39.0,-99.9,-100.00,NNW,343,9.0,19.0,-999,-99.99,,,-99.99,,2013-03-03 20:53:00,
2013-03-03 16:02:00,39.0,-99.9,29.63,NNW,340,11.0,16.0,-999,-99.99,,,-99.99,,2013-03-03 21:02:00,
2013-03-03 16:12:00,38.0,-99.9,-100.00,North,349,11.0,20.0,-999,-99.99,,,-99.99,,2013-03-03 21:12:00,
2013-03-03 16:22:00,38.0,-99.9,-100.00,North,1,16.0,23.0,-999,-99.99,,,-99.99,,2013-03-03 21:22:00,
2013-03-03 16:32:00,38.0,-99.9,29.64,North,5,17.0,22.0,-999,-99.99,,,-99.99,,2013-03-03 21:32:00,
2013-03-03 16:42:00,38.0,-99.9,-100.00,North,349,14.0,19.0,-999,-99.99,,,-99.99,,2013-03-03 21:42:00,
2013-03-03 16:52:00,37.0,-99.9,-100.00,North,357,15.0,22.0,-999,-99.99,,,-99.99,,2013-03-03 21:52:00,
2013-03-03 17:02:00,37.0,-99.9,29.65,North,358,17.0,21.0,-999,-99.99,,,-99.99,,2013-03-03 22:02:00,
2013-03-03 17:11:00,37.0,-99.9,-100.00,NNW,334,15.0,19.0,-999,-99.99,,,-99.99,,2013-03-03 22:11:00,
2013-03-03 17:22:00,37.0,-99.9,-100.00,NNW,348,15.0,19.0,-999,-99.99,,,-99.99,,2013-03-03 22:22:00,
2013-03-03 17:32:00,36.0,-99.9,29.65,NNW,331,16.0,23.0,-999,-99.99,,,-99.99,,2013-03-03 22:32:00,
2013-03-03 17:42:00,36.0,-99.9,-100.00,North,8,14.0,20.0,-999,-99.99,,,-99.99,,2013-03-03 22:42:00,
2013-03-03 17:53:00,36.0,-99.9,-100.00,North,354,15.0,20.0,-999,-99.99,,,-99.99,,2013-03-03 22:53:00,
2013-03-03 18:02:00,35.0,-99.9,29.66,North,349,17.0,21.0,-999,-99.99,,,-99.99,,2013-03-03 23:02:00,
2013-03-03 18:12:00,35.0,-99.9,-100.00,North,352,13.0,19.0,-999,-99.99,,,-99.99,,2013-03-03 23:12:00,
2013-03-03 18:22:00,35.0,-99.9,-100.00,North,355,14.0,22.0,-999,-99.99,,,-99.99,,2013-03-03 23:22:00,
2013-03-03 18:32:00,35.0,-99.9,-100.00,North,356,16.0,25.0,-999,-99.99,,,-99.99,,2013-03-03 23:32:00,
2013-03-03 18:42:00,35.0,-99.9,-100.00,North,6,19.0,22.0,-999,-99.99,,,-99.99,,2013-03-03 23:42:00,
2013-03-03 18:52:00,34.0,-99.9,-100.00,NNW,348,15.0,22.0,-999,-99.99,,,-99.99,,2013-03-03 23:52:00,
2013-03-03 19:02:00,34.0,-99.9,29.68,NNW,338,13.0,20.0,-999,-99.99,,,-99.99,,2013-03-04 00:02:00,
2013-03-03 19:11:00,34.0,-99.9,-100.00,North,351,15.0,22.0,-999,-99.99,,,-99.99,,2013-03-04 00:11:00,
2013-03-03 19:22:00,34.0,-99.9,-100.00,NNW,333,18.0,24.0,-999,-99.99,,,-99.99,,2013-03-04 00:22:00,
2013-03-03 19:32:00,34.0,-99.9,29.70,NNW,347,16.0,23.0,-999,-99.99,,,-99.99,,2013-03-04 00:32:00,
2013-03-03 19:42:00,34.0,-99.9,-100.00,North,359,17.0,22.0,-999,-99.99,,,-99.99,,2013-03-04 00:42:00,
2013-03-03 19:52:00,34.0,-99.9,-100.00,NNW,347,17.0,23.0,-999,-99.99,,,-99.99,,2013-03-04 00:52:00,
2013-03-03 20:02:00,33.0,-99.9,-100.00,North,1,19.0,23.0,-999,-99.99,,,-99.99,,2013-03-04 01:02:00,
2013-03-03 20:12:00,33.0,-99.9,-100.00,North,4,18.0,24.0,-999,-99.99,,,-99.99,,2013-03-04 01:12:00,
2013-03-03 20:22:00,33.0,-99.9,-100.00,North,355,15.0,21.0,-999,-99.99,,,-99.99,,2013-03-04 01:22:00,
2013-03-03 20:32:00,33.0,-99.9,29.71,North,6,18.0,22.0,-999,-99.99,,,-99.99,,2013-03-04 01:32:00,
2013-03-03 20:42:00,33.0,-99.9,-100.00,North,355,16.0,25.0,-999,-99.99,,,-99.99,,2013-03-04 01:42:00,
2013-03-03 20:52:00,33.0,-99.9,-100.00,North,353,14.0,19.0,-999,-99.99,,,-99.99,,2013-03-04 01:52:00,
2013-03-03 21:01:00,32.0,-99.9,29.72,NNW,340,16.0,23.0,-999,-99.99,,,-99.99,,2013-03-04 02:01:00,
2013-03-03 21:11:00,32.0,-99.9,-100.00,North,353,12.0,20.0,-999,-99.99,,,-99.99,,2013-03-04 02:11:00,
2013-03-03 21:22:00,32.0,-99.9,-100.00,NNW,333,15.0,22.0,-999,-99.99,,,-99.99,,2013-03-04 02:22:00,
2013-03-03 21:32:00,-999.0,-99.9,-100.00,NNW,344,17.0,22.0,-999,-99.99,,,-99.99,,2013-03-04 02:32:00,
2013-03-03 21:42:00,-999.0,-99.9,-100.00,North,3,17.0,23.0,-999,-99.99,,,-99.99,,2013-03-04 02:42:00,
2013-03-03 21:53:00,-999.0,-99.9,-100.00,NNW,348,13.0,19.0,-999,-99.99,,,-99.99,,2013-03-04 02:53:00,
2013-03-03 22:02:00,-999.0,-99.9,-100.00,North,356,15.0,18.0,-999,-99.99,,,-99.99,,2013-03-04 03:02:00,
2013-03-03 22:12:00,-999.0,-99.9,-100.00,NNW,340,14.0,22.0,-999,-99.99,,,-99.99,,2013-03-04 03:12:00,
2013-03-03 22:22:00,-999.0,-99.9,-100.00,North,349,15.0,22.0,-999,-99.99,,,-99.99,,2013-03-04 03:22:00,
2013-03-03 22:32:00,31.0,-99.9,29.73,North,350,15.0,22.0,-999,-99.99,,,-99.99,,2013-03-04 03:32:00,
2013-03-03 22:42:00,-999.0,-99.9,-100.00,NNW,344,14.0,18.0,-999,-99.99,,,-99.99,,2013-03-04 03:42:00,
2013-03-03 22:53:00,-999.0,-99.9,-100.00,North,352,15.0,19.0,-999,-99.99,,,-99.99,,2013-03-04 03:53:00,
2013-03-03 23:02:00,31.0,-99.9,29.73,North,353,16.0,26.0,-999,-99.99,,,-99.99,,2013-03-04 04:02:00,
2013-03-03 23:11:00,-999.0,-99.9,-100.00,North,1,13.0,19.0,-999,-99.99,,,-99.99,,2013-03-04 04:11:00,
2013-03-03 23:22:00,-999.0,-99.9,-100.00,North,354,16.0,23.0,-999,-99.99,,,-99.99,,2013-03-04 04:22:00,
2013-03-03 23:32:00,30.0,-99.9,29.73,NNW,343,13.0,21.0,-999,-99.99,,,-99.99,,2013-03-04 04:32:00,
2013-03-03 23:42:00,-999.0,-99.9,-100.00,North,-999,18.0,23.0,-999,-99.99,,,-99.99,,2013-03-04 04:42:00,
2013-03-03 23:52:00,-999.0,-99.9,-100.00,NNW,347,16.0,20.0,-999,-99.99,,,-99.99,,2013-03-04 04:52:00,